Strathcona, MN (56759)

6:49 AM CDT on July 24, 2014 (GMT -0500)
Roseau Municipal-Billberg (KROX) Elev 1060 ft | 48.86 °N, 95.70 °W | Change Station

Current weather conditions updated 14 minutes ago

Partly Cloudy
Partly Cloudy
48 °F
Feels Like 48 °F
N
4
Wind Variable Wind from ENE

Today is forecast to be Warmer than yesterday. Thunderstorms developing late tonight.

Today
High -- | Low -- °F
--% Chance of Precip.
Yesterday
High -- | Low -- °F
Precip. -- in
5:48 AM 9:12 PM
Waning Crescent, 5% visible
Pressure 30.12 in
Visibility 10.0 miles
Clouds Clear
Dew Point 43 °F
Humidity 82%
Rainfall 0.00 in
Snow Depth Not available.
UV 0 out of 12
Pollen 7.40 out of 12
Air Quality Not available.
Flu Activity Not available.
METAR KROX 241135Z AUTO 07003KT 10SM CLR 09/06 A3012 RMK AO2

More Conditions Fewer Conditions

Pressure 30.12 in
Visibility 10.0 miles
Clouds Clear
Dew Point 43 °F
Humidity 82%
Rainfall 0.00 in
Snow Depth Not available.
UV 0 out of 12
Pollen 7.40 out of 12
Air Quality Not available.
Flu Activity Not available.
METAR KROX 241135Z AUTO 07003KT 10SM CLR 09/06 A3012 RMK AO2

More Conditions Fewer Conditions

10-Day Weather Forecast

Almanac

Astronomy

Jul. 24, 2014 Rise Set
Actual Time 5:48 AM CDT 9:12 PM CDT
Civil Twilight 5:09 AM CDT 9:51 PM CDT
Nautical Twilight 4:18 AM CDT 10:41 PM CDT
Astronomical Twilight 3:10 AM CDT 11:48 PM CDT
Moon 3:59 AM CDT 7:25 PM CDT
Length of Visible Light 16h 41m
Length of Day
15h 24m
Tomorrow will be 2m 27s shorter.
Waning Crescent, 5% of the Moon is Illuminated
Today
Waning Crescent
Jul 26
New
Aug 3
First Quarter
Aug 10
Full
Aug 17
Last Quarter

Today's Extremes

State Highs State Lows

Community

WunderPhotos

Upload Photos

1,736,978 photos uploaded!

Nearby

Snow Depth

Station Depth Elevation
No new snow has been reported.

Earthquake Activity

City Distance Mag. Time & Date
No recent earthquake activity has been reported nearby.
Minimum magnitude displayed is 2.5.

Coastal Water Temperatures

Place Temperature
No Stations Reporting

Nearby Weather Stations

Station Location Temp. Dew Point Humidity Wind Precip. Elev Updated Type
RAWS AGASSIZ PORTABLE MN, Middle River, MN 55 °F 54 °F 95% ENE  at  3 mph 0.00 in / hr 1147 ft 5:32 AM CDT MADIS
RAWS KITTSON MN, Karlstad, MN 56 °F 52 °F 87% SE  at  3 mph 0.00 in / hr 1060 ft 5:32 AM CDT MADIS
RAWS AGASSIZ MN, Gatzke, MN 54 °F 53 °F 96% ENE  at  3 mph 0.00 in / hr 919 ft 5:20 AM CDT MADIS

Show More Stations Show Fewer Stations